»·PEaware :: UAL745 KONT-KOAK

UAL745 :: KONT-KOAK

FLIGHT INFORMATION

Flight Status: Arrived
Operator:
United Airlines
More flights by this operator :: More flights under this callsign
Pilot: Sergei F. (8485)
Aircraft: BOEING 737-600
(B736)
More flights by this aircraft type
Origin: KONT Ontario Intl
United States
Destination: KOAK Metro Oakland Intl
United States
More flights between these airports :: More routes between these airports
Route: SNSHN5 COREZ RGOOD EMZOH3
File this flight plan on PilotEdge
Remarks:
Altitude:
(Current/Filed)
36,000ft
Speed:
(Current/Filed)
460kts
Departed: 11-Nov-23 09:19 PM
Arrived: 11-Nov-23 10:13 PM
Distance/Time
Traveled:
314nm/0:54
Distance/Time
To Go:
Arrived

Flight Plot

Page will automatically refresh every two minutes.

Flight plan parsing failed; only flown route is shown


Map Options




Map Legend


Flown Route
Filed Route
Departure Airport
Arrival Airport
Navaid (VOR, NDB)
Fix

Horizontal Profiles

Position Reports

Time Latitude Longitude Heading Altitude Ground
Speed
11-Nov-23 20:42 34.059544 -117.608047 314 943ft 0kts
11-Nov-23 20:43 34.059544 -117.608047 314 943ft 0kts
11-Nov-23 20:44 34.059544 -117.608047 314 943ft 0kts
11-Nov-23 20:45 34.059544 -117.608047 314 943ft 0kts
11-Nov-23 20:46 34.059544 -117.608047 314 943ft 0kts
11-Nov-23 20:47 34.059544 -117.608047 314 943ft 0kts
11-Nov-23 20:48 34.059544 -117.608047 314 943ft 0kts
11-Nov-23 20:49 34.059544 -117.608047 314 943ft 0kts
11-Nov-23 20:50 34.059544 -117.608047 314 943ft 0kts
11-Nov-23 20:51 34.059544 -117.608047 314 943ft 0kts
11-Nov-23 20:52 34.059544 -117.608047 314 943ft 0kts
11-Nov-23 20:53 34.059544 -117.608047 314 943ft 0kts
11-Nov-23 20:54 34.059544 -117.608047 314 943ft 0kts
11-Nov-23 20:55 34.059544 -117.608047 314 943ft 0kts
11-Nov-23 20:56 34.059544 -117.608047 314 943ft 0kts
11-Nov-23 20:57 34.059544 -117.608047 314 943ft 0kts
11-Nov-23 20:58 34.059544 -117.608047 314 943ft 0kts
11-Nov-23 20:58 34.059544 -117.608047 314 943ft 0kts
11-Nov-23 21:00 34.059544 -117.608047 314 943ft 0kts
11-Nov-23 21:01 34.059544 -117.608047 314 943ft 0kts
11-Nov-23 21:02 34.059544 -117.608047 314 943ft 0kts
11-Nov-23 21:02 34.059405 -117.607873 314 925ft 1kts
11-Nov-23 21:03 34.059136 -117.607382 266 943ft 1kts
11-Nov-23 21:04 34.059294 -117.607033 224 943ft 0kts
11-Nov-23 21:06 34.059294 -117.607033 224 943ft 0kts
11-Nov-23 21:07 34.059294 -117.607033 224 943ft 0kts
11-Nov-23 21:07 34.059294 -117.607033 224 943ft 0kts
11-Nov-23 21:08 34.059294 -117.607033 224 943ft 0kts
11-Nov-23 21:09 34.059294 -117.607033 224 943ft 0kts
11-Nov-23 21:10 34.058966 -117.607416 224 943ft 6kts
11-Nov-23 21:12 34.057984 -117.606920 90 944ft 7kts
11-Nov-23 21:12 34.057981 -117.603422 89 944ft 15kts
11-Nov-23 21:13 34.057990 -117.597354 90 942ft 18kts
11-Nov-23 21:14 34.057995 -117.591585 89 943ft 15kts
11-Nov-23 21:15 34.057990 -117.586657 90 945ft 13kts
11-Nov-23 21:16 34.057980 -117.583025 95 944ft 4kts
11-Nov-23 21:17 34.056914 -117.582844 242 943ft 3kts
11-Nov-23 21:18 34.056950 -117.599292 271 964ft 155kts
11-Nov-23 21:19 34.057570 -117.659495 271 3015ft 228kts
11-Nov-23 21:20 34.067724 -117.746448 287 5989ft 276kts
11-Nov-23 21:21 34.107029 -117.825303 313 8614ft 283kts
11-Nov-23 21:22 34.158102 -117.906295 305 10878ft 346kts
11-Nov-23 21:23 34.215671 -118.005165 306 13956ft 366kts
11-Nov-23 21:24 34.275910 -118.107611 306 16945ft 382kts
11-Nov-23 21:25 34.341856 -118.212624 309 19706ft 397kts
11-Nov-23 21:26 34.410221 -118.320239 309 22301ft 409kts
11-Nov-23 21:27 34.480387 -118.431508 309 24574ft 422kts
11-Nov-23 21:28 34.552335 -118.546008 308 26624ft 432kts
11-Nov-23 21:29 34.626043 -118.663668 308 28502ft 443kts
11-Nov-23 21:30 34.701359 -118.784279 308 30245ft 451kts
11-Nov-23 21:31 34.776048 -118.904240 308 32438ft 440kts
11-Nov-23 21:32 34.871835 -118.990702 330 34355ft 429kts
11-Nov-23 21:33 34.975405 -119.064110 329 35521ft 429kts
11-Nov-23 21:34 35.077426 -119.137428 329 36169ft 429kts
11-Nov-23 21:35 35.179435 -119.210808 329 36191ft 424kts
11-Nov-23 21:36 35.280934 -119.284019 329 36200ft 422kts
11-Nov-23 21:37 35.379926 -119.355625 328 36204ft 423kts
11-Nov-23 21:38 35.481637 -119.429385 328 36197ft 426kts
11-Nov-23 21:39 35.581687 -119.506497 320 36196ft 427kts
11-Nov-23 21:40 35.672283 -119.601533 319 36196ft 428kts
11-Nov-23 21:41 35.763838 -119.695768 319 36191ft 429kts
11-Nov-23 21:42 35.855372 -119.789647 319 36192ft 428kts
11-Nov-23 21:43 35.945491 -119.886137 315 36198ft 428kts
11-Nov-23 21:44 36.030633 -119.988776 314 36197ft 428kts
11-Nov-23 21:45 36.116341 -120.090973 314 36198ft 428kts
11-Nov-23 21:46 36.201931 -120.193014 314 36199ft 428kts
11-Nov-23 21:47 36.287492 -120.295366 313 36199ft 428kts
11-Nov-23 21:48 36.373292 -120.398330 313 36197ft 428kts
11-Nov-23 21:49 36.459499 -120.502121 313 35026ft 435kts
11-Nov-23 21:50 36.546804 -120.607237 314 31461ft 441kts
11-Nov-23 21:51 36.638989 -120.708701 316 28164ft 433kts
11-Nov-23 21:52 36.726404 -120.805458 315 25614ft 414kts
11-Nov-23 21:53 36.808962 -120.897272 315 23857ft 390kts
11-Nov-23 21:54 36.889114 -120.986206 316 21646ft 377kts
11-Nov-23 21:55 36.966170 -121.071914 316 19692ft 365kts
11-Nov-23 21:56 37.040986 -121.155359 316 17665ft 357kts
11-Nov-23 21:57 37.114740 -121.237807 317 15587ft 351kts
11-Nov-23 21:58 37.186688 -121.320532 316 13462ft 351kts
11-Nov-23 21:59 37.257244 -121.402818 316 11549ft 341kts
11-Nov-23 22:00 37.325287 -121.482122 316 10265ft 316kts
11-Nov-23 22:01 37.386467 -121.553455 317 9287ft 293kts
11-Nov-23 22:02 37.445700 -121.622610 309 7979ft 288kts
11-Nov-23 22:03 37.491153 -121.703914 305 6857ft 276kts
11-Nov-23 22:04 37.532749 -121.783228 283 6078ft 273kts
11-Nov-23 22:05 37.543557 -121.877714 277 5214ft 270kts
11-Nov-23 22:06 37.554220 -121.969322 278 4342ft 254kts
11-Nov-23 22:07 37.586119 -122.041129 311 3499ft 223kts
11-Nov-23 22:08 37.621855 -122.094681 310 2449ft 178kts
11-Nov-23 22:09 37.649909 -122.136794 311 1635ft 139kts
11-Nov-23 22:10 37.674460 -122.173656 310 862ft 133kts
11-Nov-23 22:11 37.697987 -122.208963 310 143ft 130kts
11-Nov-23 22:12 37.712369 -122.230251 322 8ft 30kts
11-Nov-23 22:13 37.714570 -122.230114 130 8ft 8kts
11-Nov-23 22:14 37.712546 -122.227076 130 8ft 12kts
11-Nov-23 22:15 37.712901 -122.224101 48 8ft 9kts
11-Nov-23 22:16 37.712684 -122.221545 130 8ft 8kts
11-Nov-23 22:17 37.711258 -122.219403 130 8ft 7kts
11-Nov-23 22:18 37.711322 -122.217659 38 8ft 5kts
11-Nov-23 22:19 37.712021 -122.216519 140 9ft 4kts
11-Nov-23 22:20 37.711635 -122.216108 138 8ft 0kts
11-Nov-23 22:21 37.711635 -122.216108 138 8ft 0kts
11-Nov-23 22:22 37.711635 -122.216108 138 8ft 0kts
11-Nov-23 22:23 37.711635 -122.216108 138 8ft 0kts
11-Nov-23 22:24 37.711635 -122.216108 138 8ft 0kts

Navigation Log

Ident Type
Flight plan parsing failed, navigation log unavailable